createdAt,value
2017-02-16T00:00:38.339Z,1029.7
2017-02-16T00:01:39.112Z,1029.68
2017-02-16T00:02:39.810Z,1029.62
2017-02-16T00:03:40.580Z,1029.64
2017-02-16T00:04:41.276Z,1029.62
2017-02-16T00:05:42.024Z,1029.61
2017-02-16T00:06:42.861Z,1029.6
2017-02-16T00:07:43.585Z,1029.61
2017-02-16T00:08:44.326Z,1029.63
2017-02-16T00:09:45.136Z,1029.66
2017-02-16T00:10:45.771Z,1029.62
2017-02-16T00:11:46.506Z,1029.61
2017-02-16T00:12:47.249Z,1029.61
2017-02-16T00:13:47.937Z,1029.64
2017-02-16T00:14:48.675Z,1029.62
2017-02-16T00:15:49.425Z,1029.64
2017-02-16T00:16:50.190Z,1029.63
2017-02-16T00:17:50.925Z,1029.65
2017-02-16T00:18:51.655Z,1029.64
2017-02-16T00:19:52.386Z,1029.63
2017-02-16T00:20:53.235Z,1029.58
2017-02-16T00:21:53.948Z,1029.55
2017-02-16T00:22:54.715Z,1029.52
2017-02-16T00:23:55.466Z,1029.48
2017-02-16T00:24:56.185Z,1029.45
2017-02-16T00:25:56.874Z,1029.45
2017-02-16T00:26:57.594Z,1029.43
2017-02-16T00:27:58.312Z,1029.46
2017-02-16T00:28:59.075Z,1029.46
2017-02-16T00:29:59.764Z,1029.48
2017-02-16T00:31:00.500Z,1029.53
2017-02-16T00:32:01.195Z,1029.55
2017-02-16T00:33:01.901Z,1029.54
2017-02-16T00:34:02.610Z,1029.56
2017-02-16T00:35:03.304Z,1029.55
2017-02-16T00:36:04.004Z,1029.51
2017-02-16T00:37:04.720Z,1029.43
2017-02-16T00:38:05.418Z,1029.46
2017-02-16T00:39:06.187Z,1029.44
2017-02-16T00:40:06.908Z,1029.43
2017-02-16T00:41:07.632Z,1029.41
2017-02-16T00:42:08.345Z,1029.35
2017-02-16T00:43:09.055Z,1029.35
2017-02-16T00:44:09.823Z,1029.36
2017-02-16T00:45:10.516Z,1029.35
2017-02-16T00:46:11.317Z,1029.33
2017-02-16T00:47:12.038Z,1029.32
2017-02-16T00:48:12.799Z,1029.35
2017-02-16T00:49:13.505Z,1029.34
2017-02-16T00:50:14.213Z,1029.32
2017-02-16T00:51:14.895Z,1029.3
2017-02-16T00:52:15.613Z,1029.25
2017-02-16T00:53:16.414Z,1029.23
2017-02-16T00:54:17.050Z,1029.21
2017-02-16T00:55:17.762Z,1029.21
2017-02-16T00:56:18.481Z,1029.2
2017-02-16T00:57:19.177Z,1029.17
2017-02-16T00:58:19.916Z,1029.15
2017-02-16T00:59:20.640Z,1029.18
2017-02-16T01:00:21.372Z,1029.18
2017-02-16T01:01:22.068Z,1029.14
2017-02-16T01:02:22.746Z,1029.16
2017-02-16T01:03:23.489Z,1029.14
2017-02-16T01:04:24.191Z,1029.16
2017-02-16T01:05:24.930Z,1029.17
2017-02-16T01:06:25.632Z,1029.18
2017-02-16T01:07:26.332Z,1029.17
2017-02-16T01:08:27.030Z,1029.15
2017-02-16T01:09:27.747Z,1029.14
2017-02-16T01:10:28.505Z,1029.14
2017-02-16T01:11:29.258Z,1029.18
2017-02-16T01:12:29.987Z,1029.15
2017-02-16T01:13:30.721Z,1029.13
2017-02-16T01:14:31.411Z,1029.19
2017-02-16T01:15:32.127Z,1029.19
2017-02-16T01:16:32.862Z,1029.22
2017-02-16T01:17:33.592Z,1029.2
2017-02-16T01:18:34.297Z,1029.18
2017-02-16T01:19:35.034Z,1029.18
2017-02-16T01:20:35.737Z,1029.23
2017-02-16T01:21:36.468Z,1029.22
2017-02-16T01:22:37.284Z,1029.3
2017-02-16T01:23:37.884Z,1029.29
2017-02-16T01:24:38.594Z,1029.25
2017-02-16T01:25:39.324Z,1029.26
2017-02-16T01:26:40.062Z,1029.22
2017-02-16T01:27:40.739Z,1029.27
2017-02-16T01:28:41.484Z,1029.21
2017-02-16T01:29:42.191Z,1029.24
2017-02-16T01:30:42.908Z,1029.23
2017-02-16T01:31:43.644Z,1029.17
2017-02-16T01:32:44.442Z,1029.18
2017-02-16T01:33:45.187Z,1029.21
2017-02-16T01:34:45.906Z,1029.17
2017-02-16T01:35:46.608Z,1029.18
2017-02-16T01:36:47.326Z,1029.19
2017-02-16T01:37:48.039Z,1029.21
2017-02-16T01:38:48.750Z,1029.22
2017-02-16T01:39:49.465Z,1029.18
2017-02-16T01:40:50.178Z,1029.18
2017-02-16T01:41:50.884Z,1029.15
2017-02-16T01:42:51.599Z,1029.17
2017-02-16T01:43:52.300Z,1029.19
2017-02-16T01:44:53.016Z,1029.18
2017-02-16T01:45:53.737Z,1029.13
2017-02-16T01:46:54.470Z,1029.16
2017-02-16T01:47:55.172Z,1029.1
2017-02-16T01:48:55.895Z,1029.13
2017-02-16T01:49:56.635Z,1029.05
2017-02-16T01:50:57.340Z,1029.07
2017-02-16T01:51:58.039Z,1029.07
2017-02-16T01:52:58.736Z,1029.04
2017-02-16T01:53:59.437Z,1029.02
2017-02-16T01:55:00.146Z,1029.02
2017-02-16T01:56:00.828Z,1028.97
2017-02-16T01:57:01.547Z,1028.96
2017-02-16T01:58:02.259Z,1028.98
2017-02-16T01:59:02.963Z,1028.96
2017-02-16T02:00:03.666Z,1028.99
2017-02-16T02:01:04.413Z,1028.93
2017-02-16T02:02:05.134Z,1028.99
2017-02-16T02:03:05.831Z,1028.92
2017-02-16T02:04:06.530Z,1028.92
2017-02-16T02:05:07.243Z,1028.91
2017-02-16T02:06:07.944Z,1028.92
2017-02-16T02:07:08.635Z,1028.89
2017-02-16T02:08:09.351Z,1028.87
2017-02-16T02:09:10.052Z,1028.86
2017-02-16T02:10:10.751Z,1028.84
2017-02-16T02:11:18.188Z,1028.84
2017-02-16T02:12:18.899Z,1028.79
2017-02-16T02:13:19.602Z,1028.78
2017-02-16T02:14:20.320Z,1028.79
2017-02-16T02:15:21.048Z,1028.78
2017-02-16T02:16:21.762Z,1028.8
2017-02-16T02:17:22.480Z,1028.81
2017-02-16T02:18:23.187Z,1028.77
2017-02-16T02:19:23.898Z,1028.77
2017-02-16T02:20:24.612Z,1028.69
2017-02-16T02:21:25.309Z,1028.72
2017-02-16T02:22:26.041Z,1028.69
2017-02-16T02:23:26.734Z,1028.66
2017-02-16T02:24:27.488Z,1028.65
2017-02-16T02:25:28.203Z,1028.64
2017-02-16T02:26:28.926Z,1028.62
2017-02-16T02:27:29.638Z,1028.59
2017-02-16T02:28:30.332Z,1028.57
2017-02-16T02:29:31.041Z,1028.58
2017-02-16T02:30:31.755Z,1028.54
2017-02-16T02:31:32.485Z,1028.57
2017-02-16T02:32:33.168Z,1028.55
2017-02-16T02:33:33.873Z,1028.51
2017-02-16T02:34:34.666Z,1028.55
2017-02-16T02:35:35.423Z,1028.5
2017-02-16T02:36:36.117Z,1028.52
2017-02-16T02:37:36.830Z,1028.5
2017-02-16T02:38:37.518Z,1028.49
2017-02-16T02:39:38.244Z,1028.53
2017-02-16T02:40:38.931Z,1028.54
2017-02-16T02:41:39.596Z,1028.49
2017-02-16T02:42:40.299Z,1028.46
2017-02-16T02:43:41.001Z,1028.45
2017-02-16T02:44:41.708Z,1028.43
2017-02-16T02:45:42.394Z,1028.43
2017-02-16T02:46:43.100Z,1028.48
2017-02-16T02:47:43.784Z,1028.49
2017-02-16T02:48:44.607Z,1028.51
2017-02-16T02:49:45.327Z,1028.49
2017-02-16T02:50:46.011Z,1028.53
2017-02-16T02:51:46.723Z,1028.51
2017-02-16T02:52:47.425Z,1028.52
2017-02-16T02:53:48.148Z,1028.51
2017-02-16T02:54:48.851Z,1028.5
2017-02-16T02:55:49.564Z,1028.52
2017-02-16T02:56:50.282Z,1028.49
2017-02-16T02:57:51.007Z,1028.52
2017-02-16T02:58:51.716Z,1028.55
2017-02-16T02:59:52.414Z,1028.53
2017-02-16T03:00:53.117Z,1028.47
2017-02-16T03:01:53.839Z,1028.48
2017-02-16T03:02:54.584Z,1028.48
2017-02-16T03:03:55.301Z,1028.49
2017-02-16T03:04:56.029Z,1028.4
2017-02-16T03:05:56.787Z,1028.42
2017-02-16T03:06:57.484Z,1028.45
2017-02-16T03:07:58.206Z,1028.47
2017-02-16T03:08:58.941Z,1028.54
2017-02-16T03:09:59.667Z,1028.49
2017-02-16T03:11:00.393Z,1028.53
2017-02-16T03:12:01.096Z,1028.55
2017-02-16T03:13:01.815Z,1028.49
2017-02-16T03:14:02.537Z,1028.52
2017-02-16T03:15:03.257Z,1028.48
2017-02-16T03:16:03.960Z,1028.42
2017-02-16T03:17:04.657Z,1028.48
2017-02-16T03:18:05.382Z,1028.51
2017-02-16T03:19:06.093Z,1028.44
2017-02-16T03:20:06.799Z,1028.55
2017-02-16T03:21:07.506Z,1028.59
2017-02-16T03:22:08.229Z,1028.63
2017-02-16T03:23:08.919Z,1028.62
2017-02-16T03:24:09.631Z,1028.64
2017-02-16T03:25:10.322Z,1028.63
2017-02-16T03:26:11.024Z,1028.64
2017-02-16T03:27:11.726Z,1028.63
2017-02-16T03:28:12.436Z,1028.63
2017-02-16T03:29:13.124Z,1028.6
2017-02-16T03:30:13.814Z,1028.61
2017-02-16T03:31:14.525Z,1028.61
2017-02-16T03:32:15.245Z,1028.62
2017-02-16T03:33:15.962Z,1028.58
2017-02-16T03:34:16.675Z,1028.6
2017-02-16T03:35:17.407Z,1028.58
2017-02-16T03:36:18.106Z,1028.57
2017-02-16T03:37:18.815Z,1028.55
2017-02-16T03:38:19.513Z,1028.59
2017-02-16T03:39:20.208Z,1028.61
2017-02-16T03:40:20.919Z,1028.56
2017-02-16T03:41:21.638Z,1028.6
2017-02-16T03:42:22.340Z,1028.54
2017-02-16T03:43:23.053Z,1028.59
2017-02-16T03:44:23.772Z,1028.63
2017-02-16T03:45:24.513Z,1028.57
2017-02-16T03:46:25.235Z,1028.59
2017-02-16T03:47:25.940Z,1028.58
2017-02-16T03:48:26.652Z,1028.61
2017-02-16T03:49:27.360Z,1028.59
2017-02-16T03:50:28.045Z,1028.6
2017-02-16T03:51:28.765Z,1028.63
2017-02-16T03:52:29.490Z,1028.57
2017-02-16T03:53:30.207Z,1028.56
2017-02-16T03:54:30.907Z,1028.55
2017-02-16T03:55:31.654Z,1028.52
2017-02-16T03:56:32.364Z,1028.53
2017-02-16T03:57:33.085Z,1028.51
2017-02-16T03:58:33.828Z,1028.51
2017-02-16T03:59:34.530Z,1028.48
2017-02-16T04:00:35.238Z,1028.51
2017-02-16T04:01:35.944Z,1028.51
2017-02-16T04:02:36.633Z,1028.47
2017-02-16T04:03:37.342Z,1028.48
2017-02-16T04:04:38.145Z,1028.5
2017-02-16T04:05:38.844Z,1028.49
2017-02-16T04:06:39.565Z,1028.48
2017-02-16T04:07:40.285Z,1028.41
2017-02-16T04:08:40.972Z,1028.42
2017-02-16T04:09:41.681Z,1028.42
2017-02-16T04:10:42.379Z,1028.35
2017-02-16T04:11:43.089Z,1028.37
2017-02-16T04:12:43.785Z,1028.37
2017-02-16T04:13:44.507Z,1028.36
2017-02-16T04:14:45.208Z,1028.38
2017-02-16T04:15:45.946Z,1028.37
2017-02-16T04:16:46.657Z,1028.34
2017-02-16T04:17:47.417Z,1028.32
2017-02-16T04:18:48.151Z,1028.37
2017-02-16T04:19:48.852Z,1028.38
2017-02-16T04:20:49.605Z,1028.35
2017-02-16T04:21:50.342Z,1028.36
2017-02-16T04:22:51.203Z,1028.33
2017-02-16T04:23:51.924Z,1028.33
2017-02-16T04:24:52.624Z,1028.36
2017-02-16T04:25:53.346Z,1028.29
2017-02-16T04:26:54.065Z,1028.35
2017-02-16T04:27:55.042Z,1028.34
2017-02-16T04:28:56.566Z,1028.33
2017-02-16T04:29:57.278Z,1028.35
2017-02-16T04:30:58.310Z,1028.32
2017-02-16T04:31:59.468Z,1028.32
2017-02-16T04:33:00.185Z,1028.31
2017-02-16T04:34:00.900Z,1028.32
2017-02-16T04:35:01.628Z,1028.35
2017-02-16T04:36:02.646Z,1028.3
2017-02-16T04:37:03.396Z,1028.34
2017-02-16T04:38:04.110Z,1028.38
2017-02-16T04:39:04.822Z,1028.34
2017-02-16T04:40:05.557Z,1028.34
2017-02-16T04:41:06.257Z,1028.29
2017-02-16T04:42:07.006Z,1028.3
2017-02-16T04:43:07.711Z,1028.3
2017-02-16T04:44:08.437Z,1028.27
2017-02-16T04:45:09.160Z,1028.23
2017-02-16T04:46:09.862Z,1028.23
2017-02-16T04:47:10.581Z,1028.25
2017-02-16T04:48:11.297Z,1028.31
2017-02-16T04:49:11.989Z,1028.29
2017-02-16T04:50:12.820Z,1028.31
2017-02-16T04:51:13.547Z,1028.33
2017-02-16T04:52:14.261Z,1028.34
2017-02-16T04:53:14.985Z,1028.34
2017-02-16T04:54:15.884Z,1028.3
2017-02-16T04:55:16.595Z,1028.27
2017-02-16T04:56:17.324Z,1028.18
2017-02-16T04:57:18.013Z,1028.22
2017-02-16T04:58:18.724Z,1028.25
2017-02-16T04:59:19.444Z,1028.21
2017-02-16T05:00:20.160Z,1028.17
2017-02-16T05:01:20.846Z,1028.16
2017-02-16T05:02:21.550Z,1028.16
2017-02-16T05:03:22.296Z,1028.14
2017-02-16T05:04:23.017Z,1028.04
2017-02-16T05:05:23.749Z,1028.04
2017-02-16T05:06:25.429Z,1028.03
2017-02-16T05:07:27.376Z,1028.05
2017-02-16T05:08:28.747Z,1028.08
2017-02-16T05:09:29.458Z,1028.08
2017-02-16T05:10:30.155Z,1028.16
2017-02-16T05:11:30.864Z,1028.18
2017-02-16T05:12:31.575Z,1028.18
2017-02-16T05:13:32.261Z,1028.16
2017-02-16T05:14:32.963Z,1028.13
2017-02-16T05:15:33.669Z,1028.13
2017-02-16T05:16:34.411Z,1028.11
2017-02-16T05:17:35.137Z,1028.06
2017-02-16T05:18:35.824Z,1028.04
2017-02-16T05:19:36.545Z,1028.06
2017-02-16T05:20:37.239Z,1028.07
2017-02-16T05:21:37.937Z,1028.02
2017-02-16T05:22:38.624Z,1028.02
2017-02-16T05:23:39.332Z,1028.02
2017-02-16T05:24:40.051Z,1028.01
2017-02-16T05:25:40.749Z,1027.95
2017-02-16T05:26:41.477Z,1027.95
2017-02-16T05:27:42.200Z,1027.96
2017-02-16T05:28:42.961Z,1027.93
2017-02-16T05:29:43.682Z,1027.92
2017-02-16T05:30:44.404Z,1027.9
2017-02-16T05:31:45.164Z,1027.91
2017-02-16T05:32:45.878Z,1027.93
2017-02-16T05:33:46.603Z,1027.93
2017-02-16T05:34:47.333Z,1027.9
2017-02-16T05:35:48.030Z,1027.89
2017-02-16T05:36:48.746Z,1027.89
2017-02-16T05:37:49.476Z,1027.91
2017-02-16T05:38:50.180Z,1027.91
2017-02-16T05:39:50.887Z,1027.94
2017-02-16T05:40:51.587Z,1027.94
2017-02-16T05:41:52.311Z,1027.95
2017-02-16T05:42:53.025Z,1027.99
2017-02-16T05:43:53.735Z,1027.96
2017-02-16T05:44:54.438Z,1028
2017-02-16T05:45:55.154Z,1027.95
2017-02-16T05:46:55.852Z,1027.96
2017-02-16T05:47:56.549Z,1027.97
2017-02-16T05:48:57.254Z,1027.97
2017-02-16T05:49:57.975Z,1027.97
2017-02-16T05:50:58.681Z,1028
2017-02-16T05:51:59.401Z,1027.92
2017-02-16T05:53:00.137Z,1027.92
2017-02-16T05:54:00.831Z,1027.95
2017-02-16T05:55:01.508Z,1027.97
2017-02-16T05:56:02.213Z,1027.97
2017-02-16T05:57:02.927Z,1027.97
2017-02-16T05:58:03.612Z,1028.01
2017-02-16T05:59:04.319Z,1028
2017-02-16T06:00:05.024Z,1028.02
2017-02-16T06:01:05.722Z,1028
2017-02-16T06:02:06.399Z,1028.01
2017-02-16T06:03:07.126Z,1027.98
2017-02-16T06:04:07.839Z,1027.91
2017-02-16T06:05:08.540Z,1027.92
2017-02-16T06:06:09.260Z,1027.89
2017-02-16T06:07:09.963Z,1027.87
2017-02-16T06:08:10.651Z,1027.9
2017-02-16T06:09:11.423Z,1027.89
2017-02-16T06:10:12.137Z,1027.91
2017-02-16T06:11:12.925Z,1027.92
2017-02-16T06:12:13.642Z,1027.92
2017-02-16T06:13:14.358Z,1027.94
2017-02-16T06:14:15.099Z,1027.94
2017-02-16T06:15:15.821Z,1027.97
2017-02-16T06:16:16.532Z,1027.92
2017-02-16T06:17:17.233Z,1027.96
2017-02-16T06:18:17.940Z,1027.95
2017-02-16T06:19:18.682Z,1027.92
2017-02-16T06:20:19.387Z,1027.9
2017-02-16T06:21:20.095Z,1027.91
2017-02-16T06:22:20.802Z,1027.88
2017-02-16T06:23:21.535Z,1027.9
2017-02-16T06:24:22.236Z,1027.89
2017-02-16T06:25:22.968Z,1027.88
2017-02-16T06:26:23.663Z,1027.89
2017-02-16T06:27:24.371Z,1027.81
2017-02-16T06:28:25.084Z,1027.83
2017-02-16T06:29:25.810Z,1027.85
2017-02-16T06:30:26.523Z,1027.81
2017-02-16T06:31:27.226Z,1027.82
2017-02-16T06:32:27.965Z,1027.83
2017-02-16T06:33:28.679Z,1027.82
2017-02-16T06:34:29.435Z,1027.82
2017-02-16T06:35:30.152Z,1027.85
2017-02-16T06:36:30.844Z,1027.86
2017-02-16T06:37:31.559Z,1027.85
2017-02-16T06:38:32.266Z,1027.87
2017-02-16T06:39:32.997Z,1027.83
2017-02-16T06:40:33.720Z,1027.87
2017-02-16T06:41:34.443Z,1027.83
2017-02-16T06:42:35.170Z,1027.85
2017-02-16T06:43:35.882Z,1027.84
2017-02-16T06:44:36.589Z,1027.82
2017-02-16T06:45:37.289Z,1027.8
2017-02-16T06:46:37.981Z,1027.79
2017-02-16T06:47:38.686Z,1027.77
2017-02-16T06:48:39.453Z,1027.81
2017-02-16T06:49:40.183Z,1027.83
2017-02-16T06:50:40.899Z,1027.81
2017-02-16T06:51:41.620Z,1027.85
2017-02-16T06:52:42.333Z,1027.86
2017-02-16T06:53:43.074Z,1027.86
2017-02-16T06:54:43.806Z,1027.87
2017-02-16T06:55:44.530Z,1027.9
2017-02-16T06:56:45.247Z,1027.89
2017-02-16T06:57:45.943Z,1027.87
2017-02-16T06:58:46.679Z,1027.88
2017-02-16T06:59:47.386Z,1027.92
2017-02-16T07:00:48.134Z,1027.88
2017-02-16T07:01:48.821Z,1027.89
2017-02-16T07:02:49.539Z,1027.9
2017-02-16T07:03:50.257Z,1027.88
2017-02-16T07:04:50.971Z,1027.9
2017-02-16T07:05:51.669Z,1027.9
2017-02-16T07:06:52.383Z,1027.88
2017-02-16T07:07:53.053Z,1027.84
2017-02-16T07:08:53.743Z,1027.86
2017-02-16T07:09:54.444Z,1027.89
2017-02-16T07:10:55.159Z,1027.86
2017-02-16T07:11:55.876Z,1027.85
2017-02-16T07:12:56.615Z,1027.85
2017-02-16T07:13:57.331Z,1027.82
2017-02-16T07:14:58.028Z,1027.88
2017-02-16T07:15:58.748Z,1027.86
2017-02-16T07:16:59.463Z,1027.84
2017-02-16T07:18:00.181Z,1027.79
2017-02-16T07:19:00.872Z,1027.83
2017-02-16T07:20:01.593Z,1027.83
2017-02-16T07:21:02.314Z,1027.84
2017-02-16T07:22:03.023Z,1027.74
2017-02-16T07:23:03.751Z,1027.75
2017-02-16T07:24:04.449Z,1027.75
2017-02-16T07:25:05.179Z,1027.78
2017-02-16T07:26:05.944Z,1027.78
2017-02-16T07:27:06.633Z,1027.78
2017-02-16T07:28:07.365Z,1027.76
2017-02-16T07:29:08.070Z,1027.8
2017-02-16T07:30:08.798Z,1027.75
2017-02-16T07:31:09.497Z,1027.82
2017-02-16T07:32:10.197Z,1027.76
2017-02-16T07:33:10.919Z,1027.8
2017-02-16T07:34:11.671Z,1027.81
2017-02-16T07:35:12.412Z,1027.81
2017-02-16T07:36:13.125Z,1027.8
2017-02-16T07:37:13.839Z,1027.85
2017-02-16T07:38:14.555Z,1027.81
2017-02-16T07:39:15.265Z,1027.82
2017-02-16T07:40:15.989Z,1027.81
2017-02-16T07:41:16.693Z,1027.79
2017-02-16T07:42:17.400Z,1027.82
2017-02-16T07:43:18.107Z,1027.81
2017-02-16T07:44:18.816Z,1027.82
2017-02-16T07:45:19.528Z,1027.82
2017-02-16T07:46:20.253Z,1027.82
2017-02-16T07:47:20.988Z,1027.82
2017-02-16T07:48:21.716Z,1027.85
2017-02-16T07:49:22.453Z,1027.82
2017-02-16T07:50:23.186Z,1027.83
2017-02-16T07:51:23.903Z,1027.76
2017-02-16T07:52:24.597Z,1027.77
2017-02-16T07:53:25.359Z,1027.83
2017-02-16T07:54:26.074Z,1027.77
2017-02-16T07:55:26.802Z,1027.79
2017-02-16T07:56:27.496Z,1027.75
2017-02-16T07:57:28.252Z,1027.77
2017-02-16T07:58:29.047Z,1027.74
2017-02-16T07:59:29.763Z,1027.7
2017-02-16T08:00:30.507Z,1027.71
2017-02-16T08:01:31.252Z,1027.74
2017-02-16T08:02:31.977Z,1027.74
2017-02-16T08:03:32.696Z,1027.73
2017-02-16T08:04:33.433Z,1027.72
2017-02-16T08:05:34.147Z,1027.71
2017-02-16T08:06:34.876Z,1027.76
2017-02-16T08:07:35.601Z,1027.8
2017-02-16T08:08:36.309Z,1027.77
2017-02-16T08:09:37.057Z,1027.79
2017-02-16T08:10:37.817Z,1027.75
2017-02-16T08:11:38.588Z,1027.72
2017-02-16T08:12:39.320Z,1027.74
2017-02-16T08:13:40.078Z,1027.71
2017-02-16T08:14:40.821Z,1027.71
2017-02-16T08:15:41.548Z,1027.67
2017-02-16T08:16:42.276Z,1027.67
2017-02-16T08:17:43.014Z,1027.65
2017-02-16T08:18:43.782Z,1027.68
2017-02-16T08:19:44.483Z,1027.62
2017-02-16T08:20:45.204Z,1027.66
2017-02-16T08:21:45.908Z,1027.64
2017-02-16T08:22:46.617Z,1027.63
2017-02-16T08:23:47.372Z,1027.6
2017-02-16T08:24:48.131Z,1027.62
2017-02-16T08:25:48.852Z,1027.61
2017-02-16T08:26:49.606Z,1027.63
2017-02-16T08:27:50.376Z,1027.63
2017-02-16T08:28:51.109Z,1027.6
2017-02-16T08:29:51.861Z,1027.62
2017-02-16T08:30:52.609Z,1027.6
2017-02-16T08:31:53.392Z,1027.62
2017-02-16T08:32:54.089Z,1027.6
2017-02-16T08:33:54.947Z,1027.59
2017-02-16T08:34:55.697Z,1027.58
2017-02-16T08:35:56.432Z,1027.62
2017-02-16T08:36:57.174Z,1027.64
2017-02-16T08:37:57.938Z,1027.64
2017-02-16T08:38:58.674Z,1027.65
2017-02-16T08:39:59.375Z,1027.67
2017-02-16T08:41:00.126Z,1027.67
2017-02-16T08:42:00.843Z,1027.67
2017-02-16T08:43:01.582Z,1027.72
2017-02-16T08:44:02.298Z,1027.66
2017-02-16T08:45:03.064Z,1027.67
2017-02-16T08:46:03.778Z,1027.68
2017-02-16T08:47:04.478Z,1027.67
2017-02-16T08:48:05.196Z,1027.65
2017-02-16T08:49:05.949Z,1027.6
2017-02-16T08:50:06.678Z,1027.6
2017-02-16T08:51:07.407Z,1027.65
2017-02-16T08:52:08.127Z,1027.63
2017-02-16T08:53:08.830Z,1027.66
2017-02-16T08:54:09.559Z,1027.67
2017-02-16T08:55:10.296Z,1027.67
2017-02-16T08:56:11.043Z,1027.65
2017-02-16T08:57:11.764Z,1027.65
2017-02-16T08:58:12.506Z,1027.68
2017-02-16T08:59:13.221Z,1027.68
2017-02-16T09:00:13.951Z,1027.64
2017-02-16T09:01:14.686Z,1027.7
2017-02-16T09:02:15.462Z,1027.69
2017-02-16T09:03:16.183Z,1027.73
2017-02-16T09:04:16.879Z,1027.69
2017-02-16T09:05:17.616Z,1027.63
2017-02-16T09:06:18.332Z,1027.68
2017-02-16T09:07:19.041Z,1027.59
2017-02-16T09:08:19.773Z,1027.62
2017-02-16T09:09:20.493Z,1027.67
2017-02-16T09:10:21.218Z,1027.69
2017-02-16T09:11:21.940Z,1027.67
2017-02-16T09:12:22.657Z,1027.66
2017-02-16T09:13:23.391Z,1027.65
2017-02-16T09:14:24.105Z,1027.63
2017-02-16T09:15:24.837Z,1027.63
2017-02-16T09:16:25.581Z,1027.62
2017-02-16T09:17:26.315Z,1027.61
2017-02-16T09:18:27.061Z,1027.61
2017-02-16T09:19:27.836Z,1027.59
2017-02-16T09:20:28.613Z,1027.61
2017-02-16T09:21:29.411Z,1027.57
2017-02-16T09:22:30.161Z,1027.6
2017-02-16T09:23:30.901Z,1027.58
2017-02-16T09:24:31.676Z,1027.56
2017-02-16T09:25:32.406Z,1027.5
2017-02-16T09:26:33.151Z,1027.54
2017-02-16T09:27:33.911Z,1027.55
2017-02-16T09:28:34.637Z,1027.53
2017-02-16T09:29:35.328Z,1027.5
2017-02-16T09:30:36.049Z,1027.51
2017-02-16T09:31:36.777Z,1027.52
2017-02-16T09:32:37.503Z,1027.5
2017-02-16T09:33:38.231Z,1027.54
2017-02-16T09:34:38.957Z,1027.46
2017-02-16T09:35:39.668Z,1027.51
2017-02-16T09:36:40.440Z,1027.42
2017-02-16T09:37:41.155Z,1027.46
2017-02-16T09:38:41.889Z,1027.47
2017-02-16T09:39:42.616Z,1027.42
2017-02-16T09:40:43.356Z,1027.45
2017-02-16T09:41:44.076Z,1027.47
2017-02-16T09:42:44.834Z,1027.44
2017-02-16T09:43:45.575Z,1027.49
2017-02-16T09:44:46.427Z,1027.47
2017-02-16T09:45:47.135Z,1027.55
2017-02-16T09:46:47.848Z,1027.56
2017-02-16T09:47:48.564Z,1027.51
2017-02-16T09:48:49.333Z,1027.55
2017-02-16T09:49:50.096Z,1027.48
2017-02-16T09:50:50.868Z,1027.48
2017-02-16T09:51:51.660Z,1027.44
2017-02-16T09:52:52.434Z,1027.41
2017-02-16T09:53:53.175Z,1027.44
2017-02-16T09:54:54.686Z,1027.48
2017-02-16T09:55:55.397Z,1027.41
2017-02-16T09:56:56.131Z,1027.4
2017-02-16T09:57:56.868Z,1027.41
2017-02-16T09:58:57.592Z,1027.36
2017-02-16T09:59:58.310Z,1027.36
2017-02-16T10:00:59.021Z,1027.38
2017-02-16T10:01:59.752Z,1027.39
2017-02-16T10:03:00.525Z,1027.38
2017-02-16T10:04:01.269Z,1027.38
2017-02-16T10:05:02.013Z,1027.36
2017-02-16T10:06:02.807Z,1027.38
2017-02-16T10:07:03.583Z,1027.36
2017-02-16T10:08:04.341Z,1027.38
2017-02-16T10:09:05.058Z,1027.36
2017-02-16T10:10:05.813Z,1027.32
2017-02-16T10:11:06.600Z,1027.38
2017-02-16T10:12:07.350Z,1027.36
2017-02-16T10:13:08.121Z,1027.33
2017-02-16T10:14:08.823Z,1027.36
2017-02-16T10:15:09.609Z,1027.38
2017-02-16T10:16:10.372Z,1027.38
2017-02-16T10:17:11.095Z,1027.39
2017-02-16T10:18:11.863Z,1027.31
2017-02-16T10:19:12.614Z,1027.3
2017-02-16T10:20:13.356Z,1027.28
2017-02-16T10:21:14.084Z,1027.23
2017-02-16T10:22:14.810Z,1027.24
2017-02-16T10:23:15.664Z,1027.23
2017-02-16T10:24:16.470Z,1027.25
2017-02-16T10:25:17.312Z,1027.29
2017-02-16T10:26:18.196Z,1027.29
2017-02-16T10:27:18.914Z,1027.3
2017-02-16T10:28:19.665Z,1027.35
2017-02-16T10:29:20.395Z,1027.27
2017-02-16T10:30:21.181Z,1027.29
2017-02-16T10:31:22.045Z,1027.34
2017-02-16T10:32:22.825Z,1027.39
2017-02-16T10:33:23.608Z,1027.3
2017-02-16T10:34:24.366Z,1027.31
2017-02-16T10:35:25.143Z,1027.31
2017-02-16T10:36:26.079Z,1027.31
2017-02-16T10:37:26.942Z,1027.27
2017-02-16T10:38:27.653Z,1027.3
2017-02-16T10:39:28.394Z,1027.3
2017-02-16T10:40:29.138Z,1027.27
2017-02-16T10:41:30.006Z,1027.26
2017-02-16T10:42:30.767Z,1027.25
2017-02-16T10:43:31.499Z,1027.25
2017-02-16T10:44:32.241Z,1027.24
2017-02-16T10:45:33.014Z,1027.26
2017-02-16T10:46:33.746Z,1027.25
2017-02-16T10:47:34.571Z,1027.17
2017-02-16T10:48:35.389Z,1027.2
2017-02-16T10:49:36.308Z,1027.13
2017-02-16T10:50:37.221Z,1027.16
2017-02-16T10:51:38.021Z,1027.18
2017-02-16T10:52:38.787Z,1027.13
2017-02-16T10:53:39.598Z,1027.11
2017-02-16T10:54:40.380Z,1027.13
2017-02-16T10:55:41.092Z,1027.15
2017-02-16T10:56:41.912Z,1027.11
2017-02-16T10:57:42.668Z,1027.11
2017-02-16T10:58:43.475Z,1027.1
2017-02-16T10:59:44.212Z,1027.08
2017-02-16T11:00:45.033Z,1027.1
2017-02-16T11:01:45.807Z,1027.06
2017-02-16T11:02:46.647Z,1027.02
2017-02-16T11:03:47.453Z,1027.02
2017-02-16T11:04:48.386Z,1027.04
2017-02-16T11:05:49.245Z,1027.04
2017-02-16T11:06:50.015Z,1027.01
2017-02-16T11:07:50.752Z,1026.98
2017-02-16T11:08:51.468Z,1027
2017-02-16T11:09:52.183Z,1027.01
2017-02-16T11:10:52.907Z,1026.97
2017-02-16T11:11:53.634Z,1026.91
2017-02-16T11:12:54.351Z,1026.95
2017-02-16T11:13:55.074Z,1026.92
2017-02-16T11:14:55.809Z,1026.97
2017-02-16T11:15:56.540Z,1026.94
2017-02-16T11:16:57.279Z,1026.93
2017-02-16T11:17:58.000Z,1026.93
2017-02-16T11:18:58.715Z,1026.94
2017-02-16T11:19:59.511Z,1026.93
2017-02-16T11:21:00.269Z,1026.94
2017-02-16T11:22:00.998Z,1026.96
2017-02-16T11:23:01.722Z,1026.93
2017-02-16T11:24:02.448Z,1026.93
2017-02-16T11:25:03.157Z,1026.94
2017-02-16T11:26:03.866Z,1026.94
2017-02-16T11:27:04.602Z,1026.91
2017-02-16T11:28:05.308Z,1026.87
2017-02-16T11:29:06.018Z,1026.85
2017-02-16T11:30:06.739Z,1026.81
2017-02-16T11:31:07.457Z,1026.84
2017-02-16T11:32:08.215Z,1026.81
2017-02-16T11:33:08.959Z,1026.86
2017-02-16T11:34:09.747Z,1026.82
2017-02-16T11:35:10.441Z,1026.81
2017-02-16T11:36:11.149Z,1026.8
2017-02-16T11:37:11.880Z,1026.77
2017-02-16T11:38:12.607Z,1026.8
2017-02-16T11:39:13.333Z,1026.75
2017-02-16T11:40:14.029Z,1026.75
2017-02-16T11:41:14.768Z,1026.71
2017-02-16T11:42:15.498Z,1026.68
2017-02-16T11:43:16.232Z,1026.69
2017-02-16T11:44:16.953Z,1026.67
2017-02-16T11:45:17.681Z,1026.68
2017-02-16T11:46:18.385Z,1026.75
2017-02-16T11:47:19.117Z,1026.68
2017-02-16T11:48:19.828Z,1026.7
2017-02-16T11:49:20.582Z,1026.66
2017-02-16T11:50:21.315Z,1026.64
2017-02-16T11:51:22.076Z,1026.69
2017-02-16T11:52:22.791Z,1026.69
2017-02-16T11:53:23.514Z,1026.68
2017-02-16T11:54:24.256Z,1026.71
2017-02-16T11:55:25.026Z,1026.73
2017-02-16T11:56:25.729Z,1026.65
2017-02-16T11:57:26.468Z,1026.68
2017-02-16T11:58:27.212Z,1026.68
2017-02-16T11:59:27.934Z,1026.69
2017-02-16T12:00:28.668Z,1026.66
2017-02-16T12:01:29.393Z,1026.74
2017-02-16T12:02:30.963Z,1026.69
2017-02-16T12:03:31.684Z,1026.67
2017-02-16T12:04:32.435Z,1026.68
2017-02-16T12:05:33.163Z,1026.65
2017-02-16T12:06:33.902Z,1026.62
2017-02-16T12:07:34.634Z,1026.65
2017-02-16T12:08:35.355Z,1026.64
2017-02-16T12:09:36.103Z,1026.61
2017-02-16T12:10:36.824Z,1026.65
2017-02-16T12:11:37.550Z,1026.61
2017-02-16T12:12:38.264Z,1026.61
2017-02-16T12:13:38.985Z,1026.64
2017-02-16T12:14:39.728Z,1026.66
2017-02-16T12:15:40.493Z,1026.63
2017-02-16T12:16:41.288Z,1026.6
2017-02-16T12:17:42.008Z,1026.65